• Join FlightAware (Why Join?)
  • Login
  • US Flag 
04:02AM EDT


 

Airport Tracker/Info


-or-


 

Live Flight TrackerFlight Track Log ✈ N789EX ✈ 08-Nov-2013 ✈ KMWH - KBFI

Flight Track Log - Related Links

Times and Time Zones

All times are in EST time to prevent confusion due to time zone crossing. See the N789EX flight status page for this flight to view local times or setup timezone preferences in your user account.

Time Position Orientation Groundspeed Altitude Reporting Facility
EST Latitude Longitude Course Direction KTS MPH feet Rate Location/Type
06:33PM 47.9603 -119.6808 267° West 423 487 22,000  Level Seattle Center
06:38PM 47.9310 -120.4750 267° West 341 392 22,000  Level FlightAware
06:39PM 47.9270 -120.6040 267° West 342 394 22,000 -480 Level FlightAware
06:40PM 47.9220 -120.7320 267° West 321 369 21,200 -1,500 Descending FlightAware
06:41PM 47.9180 -120.8570 267° West 330 380 19,200 -1,680 Descending FlightAware
06:41PM 47.9160 -120.9110 267° West 323 372 19,000 -480 Descending FlightAware
06:42PM 47.9140 -120.9820 268° West 318 366 18,800 -1,260 Descending FlightAware
06:43PM 47.9100 -121.1030 267° West 313 360 17,200 -1,920 Descending FlightAware
06:44PM 47.9060 -121.2070 267° West 311 358 15,500 -2,160 Descending FlightAware
06:45PM 47.9020 -121.3150 267° West 309 356 13,700 -1,980 Descending FlightAware
06:45PM 47.8980 -121.4180 267° West 304 350 12,200 -1,920 Descending FlightAware
06:46PM 47.8960 -121.4770 267° West 301 346 11,300 -1,740 Descending FlightAware
06:47PM 47.8910 -121.5900 266° West 289 333 9,800 -1,200 Descending FlightAware
06:47PM 47.8890 -121.6370 266° West 267 307 9,700 -1,080 Descending FlightAware
06:48PM 47.8860 -121.6870 265° West 263 303 8,900 -1,740 Descending FlightAware
06:48PM 47.8640 -121.7340 235° Southwest 265 305 8,000 -1,140 Descending FlightAware
06:49PM 47.8410 -121.7660 223° Southwest 259 298 7,800 -600 Descending FlightAware
06:49PM 47.8160 -121.8000 222° Southwest 257 296 7,500 -840 Descending FlightAware
06:49PM 47.8020 -121.8180 221° Southwest 255 293 7,200 -1,140 Descending FlightAware
06:50PM 47.7780 -121.8510 223° Southwest 244 281 6,700 -1,500 Descending FlightAware
06:50PM 47.7690 -121.8930 252° West 232 267 5,800 -2,100 Descending FlightAware
06:51PM 47.7670 -121.9440 267° West 230 265 4,600 -1,980 Descending FlightAware
06:51PM 47.7670 -121.9760 270° West 226 260 4,100 -1,380 Descending FlightAware
06:52PM 47.7660 -122.0180 268° West 220 253 3,500 -1,380 Descending FlightAware
06:52PM 47.7660 -122.0480 270° West 220 253 3,000 -900 Descending FlightAware
06:52PM 47.7660 -122.0900 270° West 220 253 2,800 -240 Descending FlightAware
06:53PM 47.7660 -122.1360 270° West 221 254 2,800  Level FlightAware
06:53PM 47.7650 -122.1870 268° West 219 252 2,800 -660 Level FlightAware
06:54PM 47.7650 -122.2260 270° West 217 250 2,200 -960 Descending FlightAware
06:54PM 47.7640 -122.2620 268° West 212 244 2,000 -300 Descending FlightAware
06:55PM 47.7570 -122.2920 251° West 198 228 2,000  Level FlightAware
06:55PM 47.7340 -122.3170 216° Southwest 195 224 2,000 -120 Level FlightAware
06:56PM 47.7020 -122.3410 207° Southwest 191 220 1,900 -300 Descending FlightAware
06:56PM 47.6760 -122.3560 201° Southwest 190 219 1,700 -420 Descending FlightAware
06:57PM 47.6510 -122.3700 201° Southwest 188 216 1,500 -360 Descending FlightAware
06:57PM 47.6330 -122.3760 193° South 169 194 1,400 -240 Descending FlightAware
06:58PM 47.6110 -122.3710 171° South 166 191 1,300 -540 Descending FlightAware
06:58PM 47.5890 -122.3520 150° Southeast 159 183 900 -780 Descending FlightAware
06:59PM 47.5730 -122.3390 151° Southeast 161 185 600 -720 Descending FlightAware
06:59PM 47.5640 -122.3310 149° Southeast 160 184 400 -300 Descending FlightAware
06:59PM 47.5490 -122.3180 150° Southeast 160 184 400 -300 Level FlightAware
07:00PM 47.5169 -122.2928 150° Southeast 158 182 100 -420 Descending Seattle Center